sensor_id;sensor_type;location;lat;lon;timestamp;pressure;altitude;pressure_sealevel;temperature;humidity
65280;BME280;51878;55.748;48.742;2023-02-15T00:02:01;98698.34;;;-7.65;100.00
65280;BME280;51878;55.748;48.742;2023-02-15T00:04:28;98662.41;;;-7.95;100.00
65280;BME280;51878;55.748;48.742;2023-02-15T00:07:18;98623.78;;;-8.08;100.00
65280;BME280;51878;55.748;48.742;2023-02-15T00:09:46;98693.34;;;-7.70;100.00
65280;BME280;51878;55.748;48.742;2023-02-15T00:12:14;98675.19;;;-7.74;100.00
65280;BME280;51878;55.748;48.742;2023-02-15T00:14:41;98672.47;;;-7.87;100.00
65280;BME280;51878;55.748;48.742;2023-02-15T00:17:08;98678.59;;;-7.72;100.00
65280;BME280;51878;55.748;48.742;2023-02-15T00:19:36;98689.44;;;-7.93;100.00
65280;BME280;51878;55.748;48.742;2023-02-15T00:22:03;98686.34;;;-7.85;100.00
65280;BME280;51878;55.748;48.742;2023-02-15T00:24:30;98665.09;;;-8.11;100.00
65280;BME280;51878;55.748;48.742;2023-02-15T00:26:57;98612.97;;;-8.48;100.00
65280;BME280;51878;55.748;48.742;2023-02-15T00:29:24;98706.75;;;-7.88;100.00
65280;BME280;51878;55.748;48.742;2023-02-15T00:31:51;98708.56;;;-7.75;100.00
65280;BME280;51878;55.748;48.742;2023-02-15T00:34:21;98712.41;;;-7.80;100.00
65280;BME280;51878;55.748;48.742;2023-02-15T00:36:49;98626.63;;;-8.42;100.00
65280;BME280;51878;55.748;48.742;2023-02-15T00:39:17;98688.25;;;-8.17;100.00
65280;BME280;51878;55.748;48.742;2023-02-15T00:41:45;98712.16;;;-7.92;100.00
65280;BME280;51878;55.748;48.742;2023-02-15T00:44:13;98687.13;;;-8.13;100.00
65280;BME280;51878;55.748;48.742;2023-02-15T00:46:40;98570.69;;;-8.90;100.00
65280;BME280;51878;55.748;48.742;2023-02-15T00:49:08;98667.13;;;-8.46;100.00
65280;BME280;51878;55.748;48.742;2023-02-15T00:51:35;98670.69;;;-8.47;100.00
65280;BME280;51878;55.748;48.742;2023-02-15T00:54:02;98675.59;;;-8.41;100.00
65280;BME280;51878;55.748;48.742;2023-02-15T00:56:29;98570.44;;;-9.33;100.00
65280;BME280;51878;55.748;48.742;2023-02-15T00:58:56;98715.34;;;-8.47;100.00
65280;BME280;51878;55.748;48.742;2023-02-15T01:01:23;98706.97;;;-8.69;100.00
65280;BME280;51878;55.748;48.742;2023-02-15T01:03:50;98672.00;;;-8.86;100.00
65280;BME280;51878;55.748;48.742;2023-02-15T01:06:20;98690.78;;;-8.94;100.00
65280;BME280;51878;55.748;48.742;2023-02-15T01:08:47;98638.16;;;-9.24;100.00
65280;BME280;51878;55.748;48.742;2023-02-15T01:11:20;98688.75;;;-8.88;100.00
65280;BME280;51878;55.748;48.742;2023-02-15T01:13:52;98699.94;;;-8.85;100.00
65280;BME280;51878;55.748;48.742;2023-02-15T01:16:20;98606.16;;;-9.30;100.00
65280;BME280;51878;55.748;48.742;2023-02-15T01:18:48;98622.00;;;-9.16;100.00
65280;BME280;51878;55.748;48.742;2023-02-15T01:21:17;98615.31;;;-9.22;100.00
65280;BME280;51878;55.748;48.742;2023-02-15T01:23:44;98702.81;;;-8.58;100.00
65280;BME280;51878;55.748;48.742;2023-02-15T01:26:12;98605.06;;;-9.26;100.00
65280;BME280;51878;55.748;48.742;2023-02-15T01:28:40;98699.94;;;-8.85;100.00
65280;BME280;51878;55.748;48.742;2023-02-15T01:31:13;98702.91;;;-8.75;100.00
65280;BME280;51878;55.748;48.742;2023-02-15T01:33:40;98684.03;;;-8.82;100.00
65280;BME280;51878;55.748;48.742;2023-02-15T01:36:08;98571.44;;;-9.51;100.00
65280;BME280;51878;55.748;48.742;2023-02-15T01:38:35;98613.88;;;-9.11;100.00
65280;BME280;51878;55.748;48.742;2023-02-15T01:41:03;98716.88;;;-8.59;100.00
65280;BME280;51878;55.748;48.742;2023-02-15T01:43:57;98708.91;;;-8.41;100.00
65280;BME280;51878;55.748;48.742;2023-02-15T01:46:31;98715.34;;;-8.47;100.00
65280;BME280;51878;55.748;48.742;2023-02-15T01:49:04;98718.84;;;-8.46;100.00
65280;BME280;51878;55.748;48.742;2023-02-15T01:51:36;98711.47;;;-8.56;100.00
65280;BME280;51878;55.748;48.742;2023-02-15T01:56:43;98626.47;;;-8.86;100.00
65280;BME280;51878;55.748;48.742;2023-02-15T01:59:15;98694.78;;;-8.55;99.77
65280;BME280;51878;55.748;48.742;2023-02-15T02:01:43;98692.72;;;-8.49;99.92
65280;BME280;51878;55.748;48.742;2023-02-15T02:04:31;98709.94;;;-8.44;99.54
65280;BME280;51878;55.748;48.742;2023-02-15T02:07:00;98496.72;;;-9.76;99.36
65280;BME280;51878;55.748;48.742;2023-02-15T02:09:29;98689.34;;;-8.52;99.27
65280;BME280;51878;55.748;48.742;2023-02-15T02:11:56;98624.03;;;-8.89;99.39
65280;BME280;51878;55.748;48.742;2023-02-15T02:14:24;98641.75;;;-8.77;99.01
65280;BME280;51878;55.748;48.742;2023-02-15T02:17:02;98650.47;;;-8.77;99.24
65280;BME280;51878;55.748;48.742;2023-02-15T02:31:40;98722.34;;;-8.32;100.00
65280;BME280;51878;55.748;48.742;2023-02-15T02:34:36;98687.06;;;-8.42;99.58
65280;BME280;51878;55.748;48.742;2023-02-15T02:42:38;98728.94;;;-8.08;98.53
65280;BME280;51878;55.748;48.742;2023-02-15T02:45:09;98736.22;;;-8.14;98.67
65280;BME280;51878;55.748;48.742;2023-02-15T02:47:45;98729.97;;;-8.11;98.38
65280;BME280;51878;55.748;48.742;2023-02-15T02:50:22;98693.69;;;-8.36;98.19
65280;BME280;51878;55.748;48.742;2023-02-15T02:52:51;98684.91;;;-8.35;98.21
65280;BME280;51878;55.748;48.742;2023-02-15T02:55:23;98712.34;;;-8.25;98.25
65280;BME280;51878;55.748;48.742;2023-02-15T03:00:26;98594.81;;;-9.15;97.79
65280;BME280;51878;55.748;48.742;2023-02-15T03:03:06;98715.00;;;-8.41;98.15
65280;BME280;51878;55.748;48.742;2023-02-15T03:05:39;98705.94;;;-8.51;98.63
65280;BME280;51878;55.748;48.742;2023-02-15T03:08:12;98666.03;;;-8.58;98.46
65280;BME280;51878;55.748;48.742;2023-02-15T03:10:51;98667.31;;;-8.65;98.55
65280;BME280;51878;55.748;48.742;2023-02-15T03:13:20;98744.97;;;-8.13;98.03
65280;BME280;51878;55.748;48.742;2023-02-15T03:15:50;98746.34;;;-8.22;98.69
65280;BME280;51878;55.748;48.742;2023-02-15T03:18:48;98678.09;;;-8.85;98.88
65280;BME280;51878;55.748;48.742;2023-02-15T03:24:17;98742.41;;;-8.61;100.00
65280;BME280;51878;55.748;48.742;2023-02-15T03:26:50;98745.72;;;-8.57;100.00
65280;BME280;51878;55.748;48.742;2023-02-15T03:29:21;98686.81;;;-8.85;100.00
65280;BME280;51878;55.748;48.742;2023-02-15T03:31:52;98731.72;;;-8.58;100.00
65280;BME280;51878;55.748;48.742;2023-02-15T03:34:20;98652.91;;;-9.21;100.00
65280;BME280;51878;55.748;48.742;2023-02-15T03:37:00;98779.69;;;-8.54;100.00
65280;BME280;51878;55.748;48.742;2023-02-15T03:39:37;98689.06;;;-9.10;100.00
65280;BME280;51878;55.748;48.742;2023-02-15T03:42:26;98759.84;;;-8.60;100.00
65280;BME280;51878;55.748;48.742;2023-02-15T03:45:05;98765.34;;;-8.64;100.00
65280;BME280;51878;55.748;48.742;2023-02-15T03:47:47;98690.19;;;-9.15;100.00
65280;BME280;51878;55.748;48.742;2023-02-15T03:50:19;98693.56;;;-9.12;100.00
65280;BME280;51878;55.748;48.742;2023-02-15T03:53:09;98782.38;;;-8.71;100.00
65280;BME280;51878;55.748;48.742;2023-02-15T03:55:38;98768.28;;;-8.86;100.00
65280;BME280;51878;55.748;48.742;2023-02-15T03:58:05;98786.13;;;-8.93;100.00
65280;BME280;51878;55.748;48.742;2023-02-15T04:00:59;98703.06;;;-9.43;100.00
65280;BME280;51878;55.748;48.742;2023-02-15T04:06:17;98695.78;;;-9.38;100.00
65280;BME280;51878;55.748;48.742;2023-02-15T04:08:44;98721.81;;;-9.18;100.00
65280;BME280;51878;55.748;48.742;2023-02-15T04:11:30;98791.69;;;-8.82;100.00
65280;BME280;51878;55.748;48.742;2023-02-15T04:13:57;98743.75;;;-9.19;100.00
65280;BME280;51878;55.748;48.742;2023-02-15T04:16:25;98768.38;;;-9.21;100.00
65280;BME280;51878;55.748;48.742;2023-02-15T04:18:52;98728.50;;;-9.28;100.00
65280;BME280;51878;55.748;48.742;2023-02-15T04:21:37;98705.06;;;-9.66;100.00
65280;BME280;51878;55.748;48.742;2023-02-15T04:24:23;98696.97;;;-9.61;100.00
65280;BME280;51878;55.748;48.742;2023-02-15T04:27:11;98655.25;;;-9.66;100.00
65280;BME280;51878;55.748;48.742;2023-02-15T04:29:38;98651.97;;;-9.69;100.00
65280;BME280;51878;55.748;48.742;2023-02-15T04:32:05;98786.66;;;-8.86;100.00
65280;BME280;51878;55.748;48.742;2023-02-15T04:34:33;98778.44;;;-8.96;100.00
65280;BME280;51878;55.748;48.742;2023-02-15T04:37:00;98791.56;;;-8.96;100.00
65280;BME280;51878;55.748;48.742;2023-02-15T04:39:31;98775.75;;;-8.95;100.00
65280;BME280;51878;55.748;48.742;2023-02-15T04:41:58;98753.59;;;-9.06;100.00
65280;BME280;51878;55.748;48.742;2023-02-15T04:44:25;98736.97;;;-9.23;100.00
65280;BME280;51878;55.748;48.742;2023-02-15T04:46:52;98779.47;;;-8.83;100.00
65280;BME280;51878;55.748;48.742;2023-02-15T04:49:23;98805.69;;;-8.65;100.00
65280;BME280;51878;55.748;48.742;2023-02-15T04:51:51;98745.06;;;-8.94;100.00
65280;BME280;51878;55.748;48.742;2023-02-15T04:54:18;98813.66;;;-8.51;100.00
65280;BME280;51878;55.748;48.742;2023-02-15T04:56:45;98783.47;;;-8.60;100.00
65280;BME280;51878;55.748;48.742;2023-02-15T04:59:12;98823.34;;;-8.52;100.00
65280;BME280;51878;55.748;48.742;2023-02-15T05:01:39;98734.41;;;-8.91;100.00
65280;BME280;51878;55.748;48.742;2023-02-15T05:04:07;98810.13;;;-8.50;100.00
65280;BME280;51878;55.748;48.742;2023-02-15T05:06:34;98748.16;;;-8.86;100.00
65280;BME280;51878;55.748;48.742;2023-02-15T05:09:01;98815.34;;;-8.34;99.76
65280;BME280;51878;55.748;48.742;2023-02-15T05:11:31;98820.47;;;-8.47;99.68
65280;BME280;51878;55.748;48.742;2023-02-15T05:13:58;98798.91;;;-8.69;99.85
65280;BME280;51878;55.748;48.742;2023-02-15T05:16:25;98793.94;;;-8.42;99.55
65280;BME280;51878;55.748;48.742;2023-02-15T05:18:54;98794.28;;;-8.48;98.46
65280;BME280;51878;55.748;48.742;2023-02-15T05:21:21;98801.81;;;-8.58;98.14
65280;BME280;51878;55.748;48.742;2023-02-15T05:23:48;98782.06;;;-8.65;97.37
65280;BME280;51878;55.748;48.742;2023-02-15T05:26:23;98749.53;;;-9.12;97.30
65280;BME280;51878;55.748;48.742;2023-02-15T05:29:10;98744.84;;;-8.74;96.16
65280;BME280;51878;55.748;48.742;2023-02-15T05:31:37;98752.09;;;-8.95;96.38
65280;BME280;51878;55.748;48.742;2023-02-15T05:34:04;98782.03;;;-8.81;95.34
65280;BME280;51878;55.748;48.742;2023-02-15T05:36:31;98805.94;;;-8.70;95.39
65280;BME280;51878;55.748;48.742;2023-02-15T05:38:58;98830.19;;;-8.49;95.64
65280;BME280;51878;55.748;48.742;2023-02-15T05:41:25;98725.09;;;-8.65;94.64
65280;BME280;51878;55.748;48.742;2023-02-15T05:43:55;98803.16;;;-8.35;93.80
65280;BME280;51878;55.748;48.742;2023-02-15T05:46:22;98740.53;;;-8.90;94.05
65280;BME280;51878;55.748;48.742;2023-02-15T05:48:49;98798.34;;;-8.43;93.97
65280;BME280;51878;55.748;48.742;2023-02-15T05:51:16;98805.72;;;-8.18;93.43
65280;BME280;51878;55.748;48.742;2023-02-15T05:53:44;98819.25;;;-8.25;92.35
65280;BME280;51878;55.748;48.742;2023-02-15T05:56:12;98810.66;;;-7.81;91.96
65280;BME280;51878;55.748;48.742;2023-02-15T05:58:40;98675.88;;;-8.93;91.23
65280;BME280;51878;55.748;48.742;2023-02-15T06:01:16;98754.16;;;-8.36;91.48
65280;BME280;51878;55.748;48.742;2023-02-15T06:03:45;98818.91;;;-7.87;90.51
65280;BME280;51878;55.748;48.742;2023-02-15T06:06:12;98791.34;;;-7.96;90.38
65280;BME280;51878;55.748;48.742;2023-02-15T06:08:40;98824.91;;;-7.70;89.46
65280;BME280;51878;55.748;48.742;2023-02-15T06:11:07;98823.41;;;-7.43;87.99
65280;BME280;51878;55.748;48.742;2023-02-15T06:13:34;98788.44;;;-7.76;87.46
65280;BME280;51878;55.748;48.742;2023-02-15T06:16:05;98811.88;;;-7.57;87.10
65280;BME280;51878;55.748;48.742;2023-02-15T06:18:32;98799.00;;;-7.17;85.93
65280;BME280;51878;55.748;48.742;2023-02-15T06:20:59;98781.06;;;-7.10;85.66
65280;BME280;51878;55.748;48.742;2023-02-15T06:23:26;98772.84;;;-7.34;84.90
65280;BME280;51878;55.748;48.742;2023-02-15T06:25:53;98774.19;;;-7.13;84.30
65280;BME280;51878;55.748;48.742;2023-02-15T06:28:20;98808.69;;;-7.62;84.92
65280;BME280;51878;55.748;48.742;2023-02-15T06:30:47;98830.97;;;-6.64;84.39
65280;BME280;51878;55.748;48.742;2023-02-15T06:33:14;98702.03;;;-7.53;83.25
65280;BME280;51878;55.748;48.742;2023-02-15T06:35:41;98835.00;;;-6.73;83.46
65280;BME280;51878;55.748;48.742;2023-02-15T06:38:08;98709.00;;;-7.23;82.34
65280;BME280;51878;55.748;48.742;2023-02-15T06:40:38;98811.66;;;-6.93;82.38
65280;BME280;51878;55.748;48.742;2023-02-15T06:43:05;98795.47;;;-6.58;83.28
65280;BME280;51878;55.748;48.742;2023-02-15T06:45:33;98683.16;;;-7.31;82.50
65280;BME280;51878;55.748;48.742;2023-02-15T06:47:59;98808.03;;;-5.93;78.88
65280;BME280;51878;55.748;48.742;2023-02-15T06:50:27;98807.63;;;-5.73;77.31
65280;BME280;51878;55.748;48.742;2023-02-15T06:52:57;98814.34;;;-5.42;75.40
65280;BME280;51878;55.748;48.742;2023-02-15T06:55:25;98805.72;;;-6.25;77.42
65280;BME280;51878;55.748;48.742;2023-02-15T06:57:52;98763.16;;;-5.13;74.85
65280;BME280;51878;55.748;48.742;2023-02-15T07:00:19;98828.91;;;-4.70;72.21
65280;BME280;51878;55.748;48.742;2023-02-15T07:02:55;98762.19;;;-5.12;71.60
65280;BME280;51878;55.748;48.742;2023-02-15T07:05:23;98794.53;;;-4.83;70.00
65280;BME280;51878;55.748;48.742;2023-02-15T07:07:50;98750.38;;;-5.20;68.82
65280;BME280;51878;55.748;48.742;2023-02-15T07:10:17;98828.38;;;-5.01;70.53
65280;BME280;51878;55.748;48.742;2023-02-15T07:12:44;98830.50;;;-4.93;70.60
65280;BME280;51878;55.748;48.742;2023-02-15T07:15:17;98764.75;;;-5.11;70.36
65280;BME280;51878;55.748;48.742;2023-02-15T07:17:44;98642.06;;;-6.36;70.41
65280;BME280;51878;55.748;48.742;2023-02-15T07:20:22;98754.13;;;-5.89;70.65
65280;BME280;51878;55.748;48.742;2023-02-15T07:22:50;98846.97;;;-5.03;72.13
65280;BME280;51878;55.748;48.742;2023-02-15T07:25:18;98844.03;;;-4.98;71.95
65280;BME280;51878;55.748;48.742;2023-02-15T07:27:45;98784.50;;;-5.04;70.41
65280;BME280;51878;55.748;48.742;2023-02-15T07:30:15;98779.97;;;-5.02;69.92
65280;BME280;51878;55.748;48.742;2023-02-15T07:32:43;98783.69;;;-5.57;70.14
65280;BME280;51878;55.748;48.742;2023-02-15T07:35:32;98800.41;;;-5.44;71.45
65280;BME280;51878;55.748;48.742;2023-02-15T07:37:59;98782.97;;;-5.86;70.92
65280;BME280;51878;55.748;48.742;2023-02-15T07:40:26;98802.53;;;-5.49;71.72
65280;BME280;51878;55.748;48.742;2023-02-15T07:42:53;98838.31;;;-4.79;68.83
65280;BME280;51878;55.748;48.742;2023-02-15T07:45:21;98864.84;;;-5.06;70.34
65280;BME280;51878;55.748;48.742;2023-02-15T07:47:49;98834.22;;;-6.03;73.08
65280;BME280;51878;55.748;48.742;2023-02-15T07:50:16;98837.38;;;-4.78;71.15
65280;BME280;51878;55.748;48.742;2023-02-15T07:52:43;98850.38;;;-4.37;68.42
65280;BME280;51878;55.748;48.742;2023-02-15T07:55:10;98755.63;;;-4.68;66.92
65280;BME280;51878;55.748;48.742;2023-02-15T07:57:47;98778.03;;;-4.48;65.33
65280;BME280;51878;55.748;48.742;2023-02-15T08:00:19;98791.13;;;-3.73;65.08
65280;BME280;51878;55.748;48.742;2023-02-15T08:02:55;98862.78;;;-3.50;63.59
65280;BME280;51878;55.748;48.742;2023-02-15T08:05:42;98854.47;;;-4.07;64.28
65280;BME280;51878;55.748;48.742;2023-02-15T08:08:11;98788.75;;;-3.65;63.03
65280;BME280;51878;55.748;48.742;2023-02-15T08:11:10;98787.84;;;-3.28;61.61
65280;BME280;51878;55.748;48.742;2023-02-15T08:14:00;98833.44;;;-3.60;62.94
65280;BME280;51878;55.748;48.742;2023-02-15T08:19:04;98837.00;;;-3.48;63.97
65280;BME280;51878;55.748;48.742;2023-02-15T08:21:33;98798.91;;;-3.59;64.09
65280;BME280;51878;55.748;48.742;2023-02-15T08:24:00;98868.69;;;-3.23;64.02
65280;BME280;51878;55.748;48.742;2023-02-15T08:26:29;98823.81;;;-3.85;64.42
65280;BME280;51878;55.748;48.742;2023-02-15T08:28:57;98780.88;;;-3.78;64.49
65280;BME280;51878;55.748;48.742;2023-02-15T08:31:25;98780.25;;;-4.05;63.34
65280;BME280;51878;55.748;48.742;2023-02-15T08:33:54;98798.22;;;-3.74;64.79
65280;BME280;51878;55.748;48.742;2023-02-15T08:36:24;98731.97;;;-4.95;65.43
65280;BME280;51878;55.748;48.742;2023-02-15T08:38:51;98850.09;;;-4.08;64.40
65280;BME280;51878;55.748;48.742;2023-02-15T08:41:22;98813.22;;;-3.37;63.75
65280;BME280;51878;55.748;48.742;2023-02-15T08:43:54;98820.19;;;-3.84;63.69
65280;BME280;51878;55.748;48.742;2023-02-15T08:46:23;98837.16;;;-2.57;64.14
65280;BME280;51878;55.748;48.742;2023-02-15T08:48:51;98771.03;;;-2.82;60.95
65280;BME280;51878;55.748;48.742;2023-02-15T08:51:23;98734.41;;;-2.88;63.12
65280;BME280;51878;55.748;48.742;2023-02-15T08:54:16;98848.72;;;-1.35;59.35
65280;BME280;51878;55.748;48.742;2023-02-15T08:56:44;98829.03;;;-0.49;56.36
65280;BME280;51878;55.748;48.742;2023-02-15T08:59:14;98842.44;;;-0.39;53.14
65280;BME280;51878;55.748;48.742;2023-02-15T09:01:43;98674.56;;;-0.28;51.48
65280;BME280;51878;55.748;48.742;2023-02-15T09:04:11;98824.38;;;1.61;50.76
65280;BME280;51878;55.748;48.742;2023-02-15T09:06:40;98788.94;;;1.12;49.86
65280;BME280;51878;55.748;48.742;2023-02-15T09:09:08;98783.22;;;1.63;46.91
65280;BME280;51878;55.748;48.742;2023-02-15T09:11:38;98796.94;;;2.52;45.23
65280;BME280;51878;55.748;48.742;2023-02-15T09:14:11;98844.13;;;3.24;43.44
65280;BME280;51878;55.748;48.742;2023-02-15T09:16:40;98856.44;;;3.17;42.02
65280;BME280;51878;55.748;48.742;2023-02-15T09:19:08;98847.16;;;2.58;44.08
65280;BME280;51878;55.748;48.742;2023-02-15T09:21:36;98833.03;;;2.65;42.89
65280;BME280;51878;55.748;48.742;2023-02-15T09:24:06;98845.13;;;2.52;43.25
65280;BME280;51878;55.748;48.742;2023-02-15T09:26:36;98842.84;;;2.75;42.30
65280;BME280;51878;55.748;48.742;2023-02-15T09:29:07;98824.56;;;2.24;43.31
65280;BME280;51878;55.748;48.742;2023-02-15T09:31:39;98871.25;;;1.55;45.02
65280;BME280;51878;55.748;48.742;2023-02-15T09:34:08;98808.97;;;1.55;44.72
65280;BME280;51878;55.748;48.742;2023-02-15T09:36:37;98794.69;;;1.27;44.44
65280;BME280;51878;55.748;48.742;2023-02-15T09:47:31;98873.66;;;0.90;46.71
65280;BME280;51878;55.748;48.742;2023-02-15T09:50:15;98872.53;;;0.73;47.81
65280;BME280;51878;55.748;48.742;2023-02-15T09:55:54;98876.72;;;-0.46;50.03
65280;BME280;51878;55.748;48.742;2023-02-15T10:01:09;98889.56;;;-1.25;54.20
65280;BME280;51878;55.748;48.742;2023-02-15T10:06:49;98808.38;;;-1.73;54.11
65280;BME280;51878;55.748;48.742;2023-02-15T10:09:35;98847.91;;;-1.03;53.10
65280;BME280;51878;55.748;48.742;2023-02-15T10:23:07;98880.16;;;-0.76;52.32
65280;BME280;51878;55.748;48.742;2023-02-15T10:31:26;98862.22;;;-0.32;50.40
65280;BME280;51878;55.748;48.742;2023-02-15T10:34:17;98819.03;;;-0.87;51.30
65280;BME280;51878;55.748;48.742;2023-02-15T10:39:59;98893.06;;;-0.08;49.77
65280;BME280;51878;55.748;48.742;2023-02-15T10:51:44;98840.97;;;-1.71;53.69
65280;BME280;51878;55.748;48.742;2023-02-15T10:57:24;98855.25;;;-0.75;51.50
65280;BME280;51878;55.748;48.742;2023-02-15T11:00:09;98917.63;;;-0.68;50.83
65280;BME280;51878;55.748;48.742;2023-02-15T11:05:41;98883.22;;;-0.38;52.05
65280;BME280;51878;55.748;48.742;2023-02-15T11:08:10;98863.84;;;-0.40;51.82
65280;BME280;51878;55.748;48.742;2023-02-15T11:10:43;98846.72;;;-0.48;51.05
65280;BME280;51878;55.748;48.742;2023-02-15T11:13:14;98883.97;;;-1.22;52.74
65280;BME280;51878;55.748;48.742;2023-02-15T11:15:44;98938.47;;;-1.05;52.72
65280;BME280;51878;55.748;48.742;2023-02-15T11:18:24;98920.81;;;-1.72;54.23
65280;BME280;51878;55.748;48.742;2023-02-15T11:21:05;98858.00;;;-2.75;56.00
65280;BME280;51878;55.748;48.742;2023-02-15T11:23:37;98935.75;;;-2.16;57.47
65280;BME280;51878;55.748;48.742;2023-02-15T11:26:14;98942.13;;;-2.41;56.85
65280;BME280;51878;55.748;48.742;2023-02-15T11:28:49;98881.44;;;-3.28;59.55
65280;BME280;51878;55.748;48.742;2023-02-15T11:31:26;98945.34;;;-3.69;60.30
65280;BME280;51878;55.748;48.742;2023-02-15T11:34:01;98857.38;;;-4.48;62.96
65280;BME280;51878;55.748;48.742;2023-02-15T11:36:37;98957.97;;;-4.50;65.33
65280;BME280;51878;55.748;48.742;2023-02-15T11:39:11;98902.44;;;-4.37;63.79
65280;BME280;51878;55.748;48.742;2023-02-15T11:41:41;98934.72;;;-4.06;63.80
65280;BME280;51878;55.748;48.742;2023-02-15T11:44:19;98949.91;;;-4.74;66.09
65280;BME280;51878;55.748;48.742;2023-02-15T11:46:47;98979.63;;;-4.70;66.61
65280;BME280;51878;55.748;48.742;2023-02-15T11:49:36;98895.31;;;-5.55;68.24
65280;BME280;51878;55.748;48.742;2023-02-15T11:52:11;98959.66;;;-5.02;69.29
65280;BME280;51878;55.748;48.742;2023-02-15T11:54:47;98948.94;;;-5.13;70.03
65280;BME280;51878;55.748;48.742;2023-02-15T11:57:31;98993.94;;;-5.00;70.33
65280;BME280;51878;55.748;48.742;2023-02-15T12:00:12;98978.25;;;-5.03;69.85
65280;BME280;51878;55.748;48.742;2023-02-15T12:02:48;98799.59;;;-6.40;70.20
65280;BME280;51878;55.748;48.742;2023-02-15T12:05:21;99000.44;;;-5.47;70.76
65280;BME280;51878;55.748;48.742;2023-02-15T12:08:17;99011.59;;;-5.42;71.54
65280;BME280;51878;55.748;48.742;2023-02-15T12:13:19;98956.97;;;-5.97;72.78
65280;BME280;51878;55.748;48.742;2023-02-15T12:15:50;99017.34;;;-5.78;72.15
65280;BME280;51878;55.748;48.742;2023-02-15T12:18:39;98919.94;;;-6.68;74.13
65280;BME280;51878;55.748;48.742;2023-02-15T12:21:09;98931.16;;;-6.94;75.09
65280;BME280;51878;55.748;48.742;2023-02-15T12:26:13;99025.09;;;-6.49;76.33
65280;BME280;51878;55.748;48.742;2023-02-15T12:28:43;99015.72;;;-6.38;76.23
65280;BME280;51878;55.748;48.742;2023-02-15T12:33:53;99029.41;;;-6.62;78.04
65280;BME280;51878;55.748;48.742;2023-02-15T12:36:24;98987.91;;;-6.89;79.44
65280;BME280;51878;55.748;48.742;2023-02-15T12:41:38;99025.88;;;-6.47;78.92
65280;BME280;51878;55.748;48.742;2023-02-15T12:44:36;99003.50;;;-6.70;80.21
65280;BME280;51878;55.748;48.742;2023-02-15T12:47:10;98966.03;;;-7.21;80.58
65280;BME280;51878;55.748;48.742;2023-02-15T12:49:44;98889.81;;;-7.70;80.66
65280;BME280;51878;55.748;48.742;2023-02-15T12:54:49;99017.44;;;-7.30;81.89
65280;BME280;51878;55.748;48.742;2023-02-15T12:59:57;99036.53;;;-7.26;82.41
65280;BME280;51878;55.748;48.742;2023-02-15T13:02:34;99026.00;;;-7.26;82.66
65280;BME280;51878;55.748;48.742;2023-02-15T13:05:34;99049.16;;;-7.64;83.09
65280;BME280;51878;55.748;48.742;2023-02-15T13:08:15;99048.72;;;-8.06;83.07
65280;BME280;51878;55.748;48.742;2023-02-15T13:13:45;99030.19;;;-7.87;83.36
65280;BME280;51878;55.748;48.742;2023-02-15T13:16:14;99034.97;;;-7.78;83.91
65280;BME280;51878;55.748;48.742;2023-02-15T13:18:45;99032.69;;;-8.01;84.10
65280;BME280;51878;55.748;48.742;2023-02-15T13:21:23;99018.34;;;-8.29;84.59
65280;BME280;51878;55.748;48.742;2023-02-15T13:23:55;99063.09;;;-7.96;85.02
65280;BME280;51878;55.748;48.742;2023-02-15T13:26:26;98906.09;;;-8.94;85.65
65280;BME280;51878;55.748;48.742;2023-02-15T13:28:59;98981.09;;;-8.53;85.84
65280;BME280;51878;55.748;48.742;2023-02-15T13:31:32;99045.63;;;-8.32;87.95
65280;BME280;51878;55.748;48.742;2023-02-15T13:34:09;99043.03;;;-8.49;88.70
65280;BME280;51878;55.748;48.742;2023-02-15T13:45:24;99082.00;;;-8.57;91.95
65280;BME280;51878;55.748;48.742;2023-02-15T13:48:02;99028.59;;;-8.58;92.54
65280;BME280;51878;55.748;48.742;2023-02-15T14:01:09;99023.81;;;-8.67;92.81
65280;BME280;51878;55.748;48.742;2023-02-15T14:03:47;99085.47;;;-8.39;93.08
65280;BME280;51878;55.748;48.742;2023-02-15T14:09:23;99093.25;;;-8.38;93.67
65280;BME280;51878;55.748;48.742;2023-02-15T14:20:47;99095.56;;;-8.66;95.40
65280;BME280;51878;55.748;48.742;2023-02-15T14:26:17;99120.00;;;-8.64;96.93
65280;BME280;51878;55.748;48.742;2023-02-15T14:31:55;99033.31;;;-9.18;96.95
65280;BME280;51878;55.748;48.742;2023-02-15T14:34:29;99032.97;;;-9.29;97.09
65280;BME280;51878;55.748;48.742;2023-02-15T14:37:01;99049.25;;;-9.04;97.15
65280;BME280;51878;55.748;48.742;2023-02-15T14:39:43;99107.91;;;-8.49;96.86
65280;BME280;51878;55.748;48.742;2023-02-15T14:42:43;99105.66;;;-8.94;97.64
65280;BME280;51878;55.748;48.742;2023-02-15T14:50:44;99071.56;;;-9.31;99.31
65280;BME280;51878;55.748;48.742;2023-02-15T15:01:29;99163.75;;;-8.82;99.98
65280;BME280;51878;55.748;48.742;2023-02-15T15:04:00;99133.25;;;-8.85;99.95
65280;BME280;51878;55.748;48.742;2023-02-15T15:06:31;99126.03;;;-8.99;99.51
65280;BME280;51878;55.748;48.742;2023-02-15T15:09:26;99159.06;;;-8.76;99.57
65280;BME280;51878;55.748;48.742;2023-02-15T15:12:13;99081.00;;;-9.27;99.23
65280;BME280;51878;55.748;48.742;2023-02-15T15:14:42;99134.34;;;-9.08;99.75
65280;BME280;51878;55.748;48.742;2023-02-15T15:20:13;99148.78;;;-8.80;100.00
65280;BME280;51878;55.748;48.742;2023-02-15T15:22:43;99116.78;;;-8.88;100.00
65280;BME280;51878;55.748;48.742;2023-02-15T15:25:39;99172.34;;;-8.79;100.00
65280;BME280;51878;55.748;48.742;2023-02-15T15:27:58;99142.84;;;-9.03;100.00
65280;BME280;51878;55.748;48.742;2023-02-15T15:38:49;99178.84;;;-8.49;100.00
65280;BME280;51878;55.748;48.742;2023-02-15T15:41:43;99197.00;;;-8.45;100.00
65280;BME280;51878;55.748;48.742;2023-02-15T15:49:54;99169.06;;;-8.65;100.00
65280;BME280;51878;55.748;48.742;2023-02-15T15:52:22;99147.22;;;-8.84;100.00
65280;BME280;51878;55.748;48.742;2023-02-15T15:54:55;99191.03;;;-8.66;100.00
65280;BME280;51878;55.748;48.742;2023-02-15T15:59:58;99192.69;;;-8.46;100.00
65280;BME280;51878;55.748;48.742;2023-02-15T16:02:29;99193.38;;;-8.79;100.00
65280;BME280;51878;55.748;48.742;2023-02-15T16:05:07;99198.31;;;-8.54;100.00
65280;BME280;51878;55.748;48.742;2023-02-15T16:07:34;99199.59;;;-8.62;100.00